sensor_id;sensor_type;location;lat;lon;timestamp;P1;durP1;ratioP1;P2;durP2;ratioP2
69625;SDS011;56847;51.984;5.088;2022-07-19T00:00:18;12.35;;;5.50;;
69625;SDS011;56847;51.984;5.088;2022-07-19T00:02:47;9.00;;;4.95;;
69625;SDS011;56847;51.984;5.088;2022-07-19T00:05:15;7.95;;;5.60;;
69625;SDS011;56847;51.984;5.088;2022-07-19T00:07:43;7.00;;;4.77;;
69625;SDS011;56847;51.984;5.088;2022-07-19T00:10:12;9.52;;;5.97;;
69625;SDS011;56847;51.984;5.088;2022-07-19T00:12:41;9.68;;;4.90;;
69625;SDS011;56847;51.984;5.088;2022-07-19T00:15:10;13.90;;;5.13;;
69625;SDS011;56847;51.984;5.088;2022-07-19T00:17:41;7.50;;;5.40;;
69625;SDS011;56847;51.984;5.088;2022-07-19T00:20:13;9.77;;;5.27;;
69625;SDS011;56847;51.984;5.088;2022-07-19T00:22:43;10.00;;;6.30;;
69625;SDS011;56847;51.984;5.088;2022-07-19T00:25:11;7.65;;;5.75;;
69625;SDS011;56847;51.984;5.088;2022-07-19T00:27:39;12.20;;;5.88;;
69625;SDS011;56847;51.984;5.088;2022-07-19T00:30:08;16.30;;;6.80;;
69625;SDS011;56847;51.984;5.088;2022-07-19T00:32:36;11.60;;;6.40;;
69625;SDS011;56847;51.984;5.088;2022-07-19T00:35:04;17.02;;;6.72;;
69625;SDS011;56847;51.984;5.088;2022-07-19T00:37:33;14.18;;;7.82;;
69625;SDS011;56847;51.984;5.088;2022-07-19T00:40:00;14.60;;;7.25;;
69625;SDS011;56847;51.984;5.088;2022-07-19T00:42:27;8.65;;;6.93;;
69625;SDS011;56847;51.984;5.088;2022-07-19T00:44:55;10.33;;;6.70;;
69625;SDS011;56847;51.984;5.088;2022-07-19T00:47:22;12.52;;;6.65;;
69625;SDS011;56847;51.984;5.088;2022-07-19T00:49:49;10.93;;;7.43;;
69625;SDS011;56847;51.984;5.088;2022-07-19T00:52:17;10.20;;;7.35;;
69625;SDS011;56847;51.984;5.088;2022-07-19T00:54:46;13.55;;;7.80;;
69625;SDS011;56847;51.984;5.088;2022-07-19T00:57:15;9.77;;;6.20;;
69625;SDS011;56847;51.984;5.088;2022-07-19T00:59:43;14.50;;;7.03;;
69625;SDS011;56847;51.984;5.088;2022-07-19T01:02:12;14.50;;;7.72;;
69625;SDS011;56847;51.984;5.088;2022-07-19T01:04:39;11.45;;;6.65;;
69625;SDS011;56847;51.984;5.088;2022-07-19T01:07:12;10.18;;;7.05;;
69625;SDS011;56847;51.984;5.088;2022-07-19T01:09:41;11.10;;;6.97;;
69625;SDS011;56847;51.984;5.088;2022-07-19T01:12:09;12.32;;;7.10;;
69625;SDS011;56847;51.984;5.088;2022-07-19T01:14:36;13.35;;;7.60;;
69625;SDS011;56847;51.984;5.088;2022-07-19T01:17:07;16.77;;;7.80;;
69625;SDS011;56847;51.984;5.088;2022-07-19T01:19:34;12.65;;;7.30;;
69625;SDS011;56847;51.984;5.088;2022-07-19T01:22:02;14.63;;;7.37;;
69625;SDS011;56847;51.984;5.088;2022-07-19T01:24:29;15.40;;;7.60;;
69625;SDS011;56847;51.984;5.088;2022-07-19T01:26:56;14.15;;;8.00;;
69625;SDS011;56847;51.984;5.088;2022-07-19T01:29:23;14.48;;;8.05;;
69625;SDS011;56847;51.984;5.088;2022-07-19T01:31:51;16.88;;;7.57;;
69625;SDS011;56847;51.984;5.088;2022-07-19T01:34:18;13.20;;;7.20;;
69625;SDS011;56847;51.984;5.088;2022-07-19T01:36:46;22.35;;;7.95;;
69625;SDS011;56847;51.984;5.088;2022-07-19T01:39:13;15.45;;;7.25;;
69625;SDS011;56847;51.984;5.088;2022-07-19T01:41:40;11.75;;;8.18;;
69625;SDS011;56847;51.984;5.088;2022-07-19T01:44:07;12.93;;;8.60;;
69625;SDS011;56847;51.984;5.088;2022-07-19T01:46:35;12.77;;;8.40;;
69625;SDS011;56847;51.984;5.088;2022-07-19T01:49:03;12.15;;;8.30;;
69625;SDS011;56847;51.984;5.088;2022-07-19T01:51:31;12.77;;;7.78;;
69625;SDS011;56847;51.984;5.088;2022-07-19T01:53:58;40.90;;;8.15;;
69625;SDS011;56847;51.984;5.088;2022-07-19T01:56:26;26.80;;;7.97;;
69625;SDS011;56847;51.984;5.088;2022-07-19T01:58:53;11.90;;;7.40;;
69625;SDS011;56847;51.984;5.088;2022-07-19T02:01:21;13.13;;;8.25;;
69625;SDS011;56847;51.984;5.088;2022-07-19T02:03:48;15.65;;;7.70;;
69625;SDS011;56847;51.984;5.088;2022-07-19T02:06:18;12.50;;;7.88;;
69625;SDS011;56847;51.984;5.088;2022-07-19T02:08:45;12.73;;;8.70;;
69625;SDS011;56847;51.984;5.088;2022-07-19T02:11:12;11.47;;;9.00;;
69625;SDS011;56847;51.984;5.088;2022-07-19T02:14:00;19.05;;;8.68;;
69625;SDS011;56847;51.984;5.088;2022-07-19T02:16:28;16.20;;;8.27;;
69625;SDS011;56847;51.984;5.088;2022-07-19T02:18:55;10.73;;;8.15;;
69625;SDS011;56847;51.984;5.088;2022-07-19T02:21:25;14.45;;;8.60;;
69625;SDS011;56847;51.984;5.088;2022-07-19T02:23:53;15.20;;;9.30;;
69625;SDS011;56847;51.984;5.088;2022-07-19T02:26:20;17.48;;;9.82;;
69625;SDS011;56847;51.984;5.088;2022-07-19T02:28:48;12.68;;;10.05;;
69625;SDS011;56847;51.984;5.088;2022-07-19T02:31:15;21.10;;;10.50;;
69625;SDS011;56847;51.984;5.088;2022-07-19T02:33:42;17.00;;;9.90;;
69625;SDS011;56847;51.984;5.088;2022-07-19T02:36:10;20.07;;;9.60;;
69625;SDS011;56847;51.984;5.088;2022-07-19T02:38:37;16.90;;;10.15;;
69625;SDS011;56847;51.984;5.088;2022-07-19T02:41:05;16.75;;;9.50;;
69625;SDS011;56847;51.984;5.088;2022-07-19T02:43:33;14.02;;;9.88;;
69625;SDS011;56847;51.984;5.088;2022-07-19T02:46:00;14.98;;;10.40;;
69625;SDS011;56847;51.984;5.088;2022-07-19T02:48:27;16.33;;;9.83;;
69625;SDS011;56847;51.984;5.088;2022-07-19T02:50:56;17.30;;;9.38;;
69625;SDS011;56847;51.984;5.088;2022-07-19T02:53:26;15.18;;;9.90;;
69625;SDS011;56847;51.984;5.088;2022-07-19T02:55:53;19.35;;;9.80;;
69625;SDS011;56847;51.984;5.088;2022-07-19T02:58:21;17.13;;;10.40;;
69625;SDS011;56847;51.984;5.088;2022-07-19T03:00:48;12.80;;;10.30;;
69625;SDS011;56847;51.984;5.088;2022-07-19T03:03:15;20.42;;;10.60;;
69625;SDS011;56847;51.984;5.088;2022-07-19T03:06:02;14.93;;;10.15;;
69625;SDS011;56847;51.984;5.088;2022-07-19T03:08:32;16.63;;;11.38;;
69625;SDS011;56847;51.984;5.088;2022-07-19T03:11:02;16.52;;;10.25;;
69625;SDS011;56847;51.984;5.088;2022-07-19T03:13:33;14.93;;;10.23;;
69625;SDS011;56847;51.984;5.088;2022-07-19T03:16:01;14.10;;;10.23;;
69625;SDS011;56847;51.984;5.088;2022-07-19T03:18:31;15.52;;;9.77;;
69625;SDS011;56847;51.984;5.088;2022-07-19T03:20:59;16.55;;;10.55;;
69625;SDS011;56847;51.984;5.088;2022-07-19T03:23:33;15.30;;;9.63;;
69625;SDS011;56847;51.984;5.088;2022-07-19T03:26:02;15.20;;;10.73;;
69625;SDS011;56847;51.984;5.088;2022-07-19T03:28:30;15.25;;;10.55;;
69625;SDS011;56847;51.984;5.088;2022-07-19T03:30:58;18.08;;;11.48;;
69625;SDS011;56847;51.984;5.088;2022-07-19T03:33:26;21.58;;;11.32;;
69625;SDS011;56847;51.984;5.088;2022-07-19T03:35:53;16.88;;;10.85;;
69625;SDS011;56847;51.984;5.088;2022-07-19T03:38:27;14.83;;;11.53;;
69625;SDS011;56847;51.984;5.088;2022-07-19T03:40:54;19.58;;;11.38;;
69625;SDS011;56847;51.984;5.088;2022-07-19T03:43:24;20.13;;;10.48;;
69625;SDS011;56847;51.984;5.088;2022-07-19T03:45:51;22.83;;;11.45;;
69625;SDS011;56847;51.984;5.088;2022-07-19T03:48:19;17.17;;;11.82;;
69625;SDS011;56847;51.984;5.088;2022-07-19T03:50:48;15.90;;;11.83;;
69625;SDS011;56847;51.984;5.088;2022-07-19T03:53:15;15.95;;;10.93;;
69625;SDS011;56847;51.984;5.088;2022-07-19T03:55:42;19.17;;;10.80;;
69625;SDS011;56847;51.984;5.088;2022-07-19T03:58:13;18.13;;;11.60;;
69625;SDS011;56847;51.984;5.088;2022-07-19T04:00:40;14.25;;;10.57;;
69625;SDS011;56847;51.984;5.088;2022-07-19T04:03:07;16.57;;;11.57;;
69625;SDS011;56847;51.984;5.088;2022-07-19T04:05:35;16.33;;;11.38;;
69625;SDS011;56847;51.984;5.088;2022-07-19T04:08:02;15.15;;;10.85;;
69625;SDS011;56847;51.984;5.088;2022-07-19T04:10:29;16.00;;;10.98;;
69625;SDS011;56847;51.984;5.088;2022-07-19T04:13:01;19.38;;;11.75;;
69625;SDS011;56847;51.984;5.088;2022-07-19T04:15:28;17.00;;;11.67;;
69625;SDS011;56847;51.984;5.088;2022-07-19T04:17:55;17.15;;;11.32;;
69625;SDS011;56847;51.984;5.088;2022-07-19T04:20:37;15.15;;;10.00;;
69625;SDS011;56847;51.984;5.088;2022-07-19T04:23:28;16.38;;;10.80;;
69625;SDS011;56847;51.984;5.088;2022-07-19T04:25:57;31.55;;;10.68;;
69625;SDS011;56847;51.984;5.088;2022-07-19T04:28:25;17.23;;;10.23;;
69625;SDS011;56847;51.984;5.088;2022-07-19T04:30:52;18.48;;;10.85;;
69625;SDS011;56847;51.984;5.088;2022-07-19T04:33:19;14.48;;;9.77;;
69625;SDS011;56847;51.984;5.088;2022-07-19T04:35:49;17.42;;;9.80;;
69625;SDS011;56847;51.984;5.088;2022-07-19T04:38:18;14.10;;;9.88;;
69625;SDS011;56847;51.984;5.088;2022-07-19T04:40:53;15.33;;;9.60;;
69625;SDS011;56847;51.984;5.088;2022-07-19T04:43:25;16.92;;;10.25;;
69625;SDS011;56847;51.984;5.088;2022-07-19T04:45:59;13.98;;;9.25;;
69625;SDS011;56847;51.984;5.088;2022-07-19T04:48:32;18.83;;;10.02;;
69625;SDS011;56847;51.984;5.088;2022-07-19T04:51:03;18.65;;;10.25;;
69625;SDS011;56847;51.984;5.088;2022-07-19T04:53:34;20.33;;;10.00;;
69625;SDS011;56847;51.984;5.088;2022-07-19T04:56:05;13.85;;;9.55;;
69625;SDS011;56847;51.984;5.088;2022-07-19T04:58:33;29.30;;;10.18;;
69625;SDS011;56847;51.984;5.088;2022-07-19T05:01:08;23.27;;;10.05;;
69625;SDS011;56847;51.984;5.088;2022-07-19T05:03:36;23.20;;;10.27;;
69625;SDS011;56847;51.984;5.088;2022-07-19T05:06:05;21.93;;;9.57;;
69625;SDS011;56847;51.984;5.088;2022-07-19T05:08:32;18.73;;;10.40;;
69625;SDS011;56847;51.984;5.088;2022-07-19T05:11:06;17.23;;;9.60;;
69625;SDS011;56847;51.984;5.088;2022-07-19T05:13:33;25.25;;;10.05;;
69625;SDS011;56847;51.984;5.088;2022-07-19T05:16:05;25.25;;;9.77;;
69625;SDS011;56847;51.984;5.088;2022-07-19T05:25:07;18.92;;;8.57;;
69625;SDS011;56847;51.984;5.088;2022-07-19T05:27:50;33.20;;;10.20;;
69625;SDS011;56847;51.984;5.088;2022-07-19T05:30:18;18.98;;;10.00;;
69625;SDS011;56847;51.984;5.088;2022-07-19T05:32:45;16.30;;;9.23;;
69625;SDS011;56847;51.984;5.088;2022-07-19T05:35:12;14.23;;;9.50;;
69625;SDS011;56847;51.984;5.088;2022-07-19T05:37:39;20.83;;;9.63;;
69625;SDS011;56847;51.984;5.088;2022-07-19T05:40:06;19.85;;;9.52;;
69625;SDS011;56847;51.984;5.088;2022-07-19T05:42:33;11.98;;;8.43;;
69625;SDS011;56847;51.984;5.088;2022-07-19T05:45:01;28.20;;;9.97;;
69625;SDS011;56847;51.984;5.088;2022-07-19T05:47:28;12.15;;;8.40;;
69625;SDS011;56847;51.984;5.088;2022-07-19T05:49:55;14.57;;;8.18;;
69625;SDS011;56847;51.984;5.088;2022-07-19T05:52:23;16.02;;;8.85;;
69625;SDS011;56847;51.984;5.088;2022-07-19T05:54:52;17.35;;;9.32;;
69625;SDS011;56847;51.984;5.088;2022-07-19T05:57:19;19.33;;;9.37;;
69625;SDS011;56847;51.984;5.088;2022-07-19T05:59:46;18.92;;;8.80;;
69625;SDS011;56847;51.984;5.088;2022-07-19T06:02:39;15.52;;;8.77;;
69625;SDS011;56847;51.984;5.088;2022-07-19T06:05:09;12.93;;;8.35;;
69625;SDS011;56847;51.984;5.088;2022-07-19T06:07:41;18.35;;;9.57;;
69625;SDS011;56847;51.984;5.088;2022-07-19T06:10:09;23.73;;;8.30;;
69625;SDS011;56847;51.984;5.088;2022-07-19T06:12:38;24.73;;;8.73;;
69625;SDS011;56847;51.984;5.088;2022-07-19T06:15:10;18.45;;;8.80;;
69625;SDS011;56847;51.984;5.088;2022-07-19T06:17:37;21.48;;;8.65;;
69625;SDS011;56847;51.984;5.088;2022-07-19T06:20:05;29.30;;;10.07;;
69625;SDS011;56847;51.984;5.088;2022-07-19T06:22:38;29.07;;;9.83;;
69625;SDS011;56847;51.984;5.088;2022-07-19T06:25:08;25.98;;;7.78;;
69625;SDS011;56847;51.984;5.088;2022-07-19T06:27:40;14.60;;;8.68;;
69625;SDS011;56847;51.984;5.088;2022-07-19T06:30:46;23.05;;;9.35;;
69625;SDS011;56847;51.984;5.088;2022-07-19T06:33:16;22.00;;;9.00;;
69625;SDS011;56847;51.984;5.088;2022-07-19T06:35:47;14.37;;;9.03;;
69625;SDS011;56847;51.984;5.088;2022-07-19T06:38:18;27.15;;;9.13;;
69625;SDS011;56847;51.984;5.088;2022-07-19T06:40:46;16.60;;;8.63;;
69625;SDS011;56847;51.984;5.088;2022-07-19T06:43:16;22.13;;;9.55;;
69625;SDS011;56847;51.984;5.088;2022-07-19T06:45:57;14.95;;;8.23;;
69625;SDS011;56847;51.984;5.088;2022-07-19T06:48:25;22.57;;;8.80;;
69625;SDS011;56847;51.984;5.088;2022-07-19T06:50:52;16.83;;;7.65;;
69625;SDS011;56847;51.984;5.088;2022-07-19T06:53:20;19.05;;;8.68;;
69625;SDS011;56847;51.984;5.088;2022-07-19T06:55:50;15.32;;;7.28;;
69625;SDS011;56847;51.984;5.088;2022-07-19T06:58:17;21.38;;;8.75;;
69625;SDS011;56847;51.984;5.088;2022-07-19T07:00:44;21.33;;;8.60;;
69625;SDS011;56847;51.984;5.088;2022-07-19T07:03:12;18.60;;;7.37;;
69625;SDS011;56847;51.984;5.088;2022-07-19T07:05:51;21.25;;;8.13;;
69625;SDS011;56847;51.984;5.088;2022-07-19T07:08:20;22.27;;;6.88;;
69625;SDS011;56847;51.984;5.088;2022-07-19T07:10:47;15.07;;;7.68;;
69625;SDS011;56847;51.984;5.088;2022-07-19T07:13:14;22.17;;;8.77;;
69625;SDS011;56847;51.984;5.088;2022-07-19T07:15:43;19.80;;;7.97;;
69625;SDS011;56847;51.984;5.088;2022-07-19T07:18:11;16.35;;;7.38;;
69625;SDS011;56847;51.984;5.088;2022-07-19T07:20:38;10.48;;;6.10;;
69625;SDS011;56847;51.984;5.088;2022-07-19T07:23:06;16.95;;;7.30;;
69625;SDS011;56847;51.984;5.088;2022-07-19T07:25:33;18.17;;;6.57;;
69625;SDS011;56847;51.984;5.088;2022-07-19T07:30:51;15.60;;;7.80;;
69625;SDS011;56847;51.984;5.088;2022-07-19T07:33:22;18.90;;;7.15;;
69625;SDS011;56847;51.984;5.088;2022-07-19T07:35:49;16.02;;;6.47;;
69625;SDS011;56847;51.984;5.088;2022-07-19T07:38:49;19.85;;;7.63;;
69625;SDS011;56847;51.984;5.088;2022-07-19T07:41:20;17.58;;;6.78;;
69625;SDS011;56847;51.984;5.088;2022-07-19T07:44:08;18.57;;;8.03;;
69625;SDS011;56847;51.984;5.088;2022-07-19T07:46:35;15.93;;;6.65;;
69625;SDS011;56847;51.984;5.088;2022-07-19T07:49:06;12.48;;;6.53;;
69625;SDS011;56847;51.984;5.088;2022-07-19T07:51:33;15.57;;;6.78;;
69625;SDS011;56847;51.984;5.088;2022-07-19T07:54:18;17.25;;;6.82;;
69625;SDS011;56847;51.984;5.088;2022-07-19T07:56:45;14.27;;;7.10;;
69625;SDS011;56847;51.984;5.088;2022-07-19T07:59:20;11.40;;;6.50;;
69625;SDS011;56847;51.984;5.088;2022-07-19T08:02:02;14.55;;;7.18;;
69625;SDS011;56847;51.984;5.088;2022-07-19T08:04:38;25.15;;;7.10;;
69625;SDS011;56847;51.984;5.088;2022-07-19T08:07:13;13.18;;;7.22;;
69625;SDS011;56847;51.984;5.088;2022-07-19T08:09:40;14.52;;;6.78;;
69625;SDS011;56847;51.984;5.088;2022-07-19T08:12:10;17.87;;;6.53;;
69625;SDS011;56847;51.984;5.088;2022-07-19T08:14:40;10.57;;;5.97;;
69625;SDS011;56847;51.984;5.088;2022-07-19T08:17:07;14.15;;;5.65;;
69625;SDS011;56847;51.984;5.088;2022-07-19T08:19:34;13.35;;;5.85;;
69625;SDS011;56847;51.984;5.088;2022-07-19T08:22:01;18.75;;;5.25;;
69625;SDS011;56847;51.984;5.088;2022-07-19T08:24:29;13.57;;;5.65;;
69625;SDS011;56847;51.984;5.088;2022-07-19T08:26:58;12.17;;;5.53;;
69625;SDS011;56847;51.984;5.088;2022-07-19T08:29:28;13.17;;;5.47;;
69625;SDS011;56847;51.984;5.088;2022-07-19T08:31:55;10.45;;;4.78;;
69625;SDS011;56847;51.984;5.088;2022-07-19T08:34:27;9.25;;;4.93;;
69625;SDS011;56847;51.984;5.088;2022-07-19T08:36:55;9.35;;;4.72;;
69625;SDS011;56847;51.984;5.088;2022-07-19T08:39:23;8.65;;;4.95;;
69625;SDS011;56847;51.984;5.088;2022-07-19T08:41:53;15.50;;;5.13;;
69625;SDS011;56847;51.984;5.088;2022-07-19T08:44:21;10.87;;;4.97;;
69625;SDS011;56847;51.984;5.088;2022-07-19T08:46:55;10.55;;;5.32;;
69625;SDS011;56847;51.984;5.088;2022-07-19T08:49:23;15.50;;;5.50;;
69625;SDS011;56847;51.984;5.088;2022-07-19T08:51:59;11.38;;;5.75;;
69625;SDS011;56847;51.984;5.088;2022-07-19T08:54:27;11.35;;;5.60;;
69625;SDS011;56847;51.984;5.088;2022-07-19T08:57:03;16.43;;;4.83;;
69625;SDS011;56847;51.984;5.088;2022-07-19T08:59:49;17.03;;;5.90;;
69625;SDS011;56847;51.984;5.088;2022-07-19T09:02:19;17.38;;;5.07;;
69625;SDS011;56847;51.984;5.088;2022-07-19T09:05:02;14.95;;;5.40;;
69625;SDS011;56847;51.984;5.088;2022-07-19T09:07:35;8.95;;;4.70;;
69625;SDS011;56847;51.984;5.088;2022-07-19T09:10:14;15.90;;;4.85;;
69625;SDS011;56847;51.984;5.088;2022-07-19T09:15:40;17.43;;;4.93;;
69625;SDS011;56847;51.984;5.088;2022-07-19T09:18:18;16.20;;;4.47;;
69625;SDS011;56847;51.984;5.088;2022-07-19T09:20:55;9.30;;;4.63;;
69625;SDS011;56847;51.984;5.088;2022-07-19T09:23:32;6.18;;;3.63;;
69625;SDS011;56847;51.984;5.088;2022-07-19T09:26:01;7.88;;;4.10;;
69625;SDS011;56847;51.984;5.088;2022-07-19T09:28:34;12.15;;;4.57;;
69625;SDS011;56847;51.984;5.088;2022-07-19T09:31:05;13.47;;;4.33;;
69625;SDS011;56847;51.984;5.088;2022-07-19T09:33:37;12.90;;;3.30;;
69625;SDS011;56847;51.984;5.088;2022-07-19T09:36:14;12.20;;;4.00;;
69625;SDS011;56847;51.984;5.088;2022-07-19T09:38:41;9.38;;;4.10;;
69625;SDS011;56847;51.984;5.088;2022-07-19T09:41:19;9.80;;;4.85;;
69625;SDS011;56847;51.984;5.088;2022-07-19T09:44:01;16.70;;;4.55;;
69625;SDS011;56847;51.984;5.088;2022-07-19T09:46:37;12.60;;;5.13;;
69625;SDS011;56847;51.984;5.088;2022-07-19T09:49:13;22.27;;;4.30;;
69625;SDS011;56847;51.984;5.088;2022-07-19T09:51:46;10.90;;;4.32;;
69625;SDS011;56847;51.984;5.088;2022-07-19T09:54:20;9.07;;;3.83;;
69625;SDS011;56847;51.984;5.088;2022-07-19T09:56:52;11.85;;;4.93;;
69625;SDS011;56847;51.984;5.088;2022-07-19T09:59:27;14.50;;;4.10;;
69625;SDS011;56847;51.984;5.088;2022-07-19T10:06:15;12.27;;;4.63;;
69625;SDS011;56847;51.984;5.088;2022-07-19T11:39:48;5.87;;;4.27;;
69625;SDS011;56847;51.984;5.088;2022-07-19T11:42:37;12.88;;;4.10;;
69625;SDS011;56847;51.984;5.088;2022-07-19T11:45:46;11.90;;;4.35;;
69625;SDS011;56847;51.984;5.088;2022-07-19T11:48:25;14.40;;;3.85;;
69625;SDS011;56847;51.984;5.088;2022-07-19T11:51:01;9.75;;;4.20;;
69625;SDS011;56847;51.984;5.088;2022-07-19T11:53:37;5.70;;;4.30;;
69625;SDS011;56847;51.984;5.088;2022-07-19T11:56:06;8.60;;;3.92;;
69625;SDS011;56847;51.984;5.088;2022-07-19T11:58:42;7.30;;;4.17;;
69625;SDS011;56847;51.984;5.088;2022-07-19T12:01:11;8.37;;;3.87;;
69625;SDS011;56847;51.984;5.088;2022-07-19T12:03:38;6.43;;;3.97;;
69625;SDS011;56847;51.984;5.088;2022-07-19T12:06:07;8.27;;;4.72;;
69625;SDS011;56847;51.984;5.088;2022-07-19T12:08:36;6.75;;;3.88;;
69625;SDS011;56847;51.984;5.088;2022-07-19T12:11:15;9.15;;;4.90;;
69625;SDS011;56847;51.984;5.088;2022-07-19T12:13:45;9.27;;;4.22;;
69625;SDS011;56847;51.984;5.088;2022-07-19T12:16:19;6.82;;;3.90;;
69625;SDS011;56847;51.984;5.088;2022-07-19T12:21:22;5.50;;;4.13;;
69625;SDS011;56847;51.984;5.088;2022-07-19T12:24:10;10.03;;;4.60;;
69625;SDS011;56847;51.984;5.088;2022-07-19T12:29:24;5.90;;;4.43;;
69625;SDS011;56847;51.984;5.088;2022-07-19T12:35:00;14.35;;;4.18;;
69625;SDS011;56847;51.984;5.088;2022-07-19T12:37:42;7.57;;;4.60;;
69625;SDS011;56847;51.984;5.088;2022-07-19T12:45:30;6.10;;;4.37;;
69625;SDS011;56847;51.984;5.088;2022-07-19T12:48:23;7.25;;;3.83;;
69625;SDS011;56847;51.984;5.088;2022-07-19T12:50:52;17.15;;;4.20;;
69625;SDS011;56847;51.984;5.088;2022-07-19T12:53:20;13.63;;;4.63;;
69625;SDS011;56847;51.984;5.088;2022-07-19T12:55:48;8.43;;;3.80;;
69625;SDS011;56847;51.984;5.088;2022-07-19T12:58:16;11.02;;;3.13;;
69625;SDS011;56847;51.984;5.088;2022-07-19T13:01:02;7.90;;;4.32;;
69625;SDS011;56847;51.984;5.088;2022-07-19T13:03:33;12.13;;;4.90;;
69625;SDS011;56847;51.984;5.088;2022-07-19T13:26:54;8.00;;;4.13;;
69625;SDS011;56847;51.984;5.088;2022-07-19T13:29:23;10.18;;;4.28;;
69625;SDS011;56847;51.984;5.088;2022-07-19T13:32:01;11.88;;;4.38;;
69625;SDS011;56847;51.984;5.088;2022-07-19T13:34:39;13.93;;;3.97;;
69625;SDS011;56847;51.984;5.088;2022-07-19T13:37:09;10.60;;;4.33;;
69625;SDS011;56847;51.984;5.088;2022-07-19T13:39:39;13.98;;;4.53;;
69625;SDS011;56847;51.984;5.088;2022-07-19T15:03:55;14.60;;;4.32;;
69625;SDS011;56847;51.984;5.088;2022-07-19T15:06:31;13.97;;;5.30;;
69625;SDS011;56847;51.984;5.088;2022-07-19T15:09:06;15.43;;;3.80;;
69625;SDS011;56847;51.984;5.088;2022-07-19T15:11:45;12.25;;;4.45;;
69625;SDS011;56847;51.984;5.088;2022-07-19T15:14:24;19.45;;;4.28;;
69625;SDS011;56847;51.984;5.088;2022-07-19T15:17:03;11.35;;;4.65;;
69625;SDS011;56847;51.984;5.088;2022-07-19T15:19:34;7.53;;;4.78;;
69625;SDS011;56847;51.984;5.088;2022-07-19T15:22:02;8.27;;;4.30;;
69625;SDS011;56847;51.984;5.088;2022-07-19T15:24:29;11.38;;;4.50;;
69625;SDS011;56847;51.984;5.088;2022-07-19T15:26:59;9.70;;;4.27;;
69625;SDS011;56847;51.984;5.088;2022-07-19T15:29:40;8.63;;;4.40;;
69625;SDS011;56847;51.984;5.088;2022-07-19T15:32:15;12.68;;;4.07;;
69625;SDS011;56847;51.984;5.088;2022-07-19T15:34:43;13.18;;;4.40;;
69625;SDS011;56847;51.984;5.088;2022-07-19T15:37:16;12.20;;;4.07;;
69625;SDS011;56847;51.984;5.088;2022-07-19T15:39:48;8.02;;;4.80;;
69625;SDS011;56847;51.984;5.088;2022-07-19T15:42:29;10.93;;;4.72;;
69625;SDS011;56847;51.984;5.088;2022-07-19T15:45:10;13.55;;;4.65;;
69625;SDS011;56847;51.984;5.088;2022-07-19T15:47:38;14.53;;;4.43;;
69625;SDS011;56847;51.984;5.088;2022-07-19T15:50:07;9.10;;;4.73;;
69625;SDS011;56847;51.984;5.088;2022-07-19T15:52:44;10.15;;;4.15;;
69625;SDS011;56847;51.984;5.088;2022-07-19T15:55:13;10.20;;;4.97;;
69625;SDS011;56847;51.984;5.088;2022-07-19T15:57:49;13.20;;;4.85;;
69625;SDS011;56847;51.984;5.088;2022-07-19T16:00:26;19.98;;;6.40;;
69625;SDS011;56847;51.984;5.088;2022-07-19T16:03:02;13.98;;;5.03;;
69625;SDS011;56847;51.984;5.088;2022-07-19T16:05:45;12.82;;;5.00;;
69625;SDS011;56847;51.984;5.088;2022-07-19T16:25:55;14.82;;;4.88;;
69625;SDS011;56847;51.984;5.088;2022-07-19T16:28:35;22.85;;;4.50;;
69625;SDS011;56847;51.984;5.088;2022-07-19T16:31:06;13.60;;;4.87;;
69625;SDS011;56847;51.984;5.088;2022-07-19T16:33:33;6.23;;;4.37;;
69625;SDS011;56847;51.984;5.088;2022-07-19T16:36:01;7.40;;;3.90;;
69625;SDS011;56847;51.984;5.088;2022-07-19T16:38:29;9.15;;;4.13;;
69625;SDS011;56847;51.984;5.088;2022-07-19T16:41:02;14.75;;;4.47;;
69625;SDS011;56847;51.984;5.088;2022-07-19T16:43:40;9.27;;;3.67;;
69625;SDS011;56847;51.984;5.088;2022-07-19T16:46:08;11.15;;;4.10;;
69625;SDS011;56847;51.984;5.088;2022-07-19T16:48:40;15.85;;;4.20;;
69625;SDS011;56847;51.984;5.088;2022-07-19T16:51:14;9.02;;;4.30;;
69625;SDS011;56847;51.984;5.088;2022-07-19T16:53:47;8.60;;;4.43;;
69625;SDS011;56847;51.984;5.088;2022-07-19T16:56:19;8.20;;;4.13;;
69625;SDS011;56847;51.984;5.088;2022-07-19T16:58:51;13.23;;;3.63;;
69625;SDS011;56847;51.984;5.088;2022-07-19T17:01:20;13.35;;;4.18;;
69625;SDS011;56847;51.984;5.088;2022-07-19T17:03:48;12.48;;;5.05;;
69625;SDS011;56847;51.984;5.088;2022-07-19T17:06:17;9.35;;;4.63;;
69625;SDS011;56847;51.984;5.088;2022-07-19T17:08:48;9.50;;;4.90;;
69625;SDS011;56847;51.984;5.088;2022-07-19T17:11:20;12.20;;;4.78;;
69625;SDS011;56847;51.984;5.088;2022-07-19T17:13:54;9.65;;;4.57;;
69625;SDS011;56847;51.984;5.088;2022-07-19T17:16:29;9.05;;;4.63;;
69625;SDS011;56847;51.984;5.088;2022-07-19T17:19:10;7.57;;;5.13;;
69625;SDS011;56847;51.984;5.088;2022-07-19T17:21:46;10.60;;;4.53;;
69625;SDS011;56847;51.984;5.088;2022-07-19T17:24:26;158.02;;;8.27;;
69625;SDS011;56847;51.984;5.088;2022-07-19T17:26:54;16.02;;;4.68;;
69625;SDS011;56847;51.984;5.088;2022-07-19T17:29:26;11.63;;;4.55;;
69625;SDS011;56847;51.984;5.088;2022-07-19T17:31:53;13.60;;;4.57;;
69625;SDS011;56847;51.984;5.088;2022-07-19T17:34:23;13.17;;;4.20;;
69625;SDS011;56847;51.984;5.088;2022-07-19T17:36:57;11.53;;;5.07;;
69625;SDS011;56847;51.984;5.088;2022-07-19T17:39:33;7.05;;;4.65;;
69625;SDS011;56847;51.984;5.088;2022-07-19T17:42:43;20.27;;;5.60;;
69625;SDS011;56847;51.984;5.088;2022-07-19T17:45:12;9.98;;;5.03;;
69625;SDS011;56847;51.984;5.088;2022-07-19T17:47:44;7.47;;;4.57;;
69625;SDS011;56847;51.984;5.088;2022-07-19T17:50:11;14.90;;;5.47;;
69625;SDS011;56847;51.984;5.088;2022-07-19T17:52:39;13.07;;;5.10;;
69625;SDS011;56847;51.984;5.088;2022-07-19T17:55:10;11.82;;;5.47;;
69625;SDS011;56847;51.984;5.088;2022-07-19T17:57:52;6.63;;;4.88;;
69625;SDS011;56847;51.984;5.088;2022-07-19T18:00:39;13.82;;;4.72;;
69625;SDS011;56847;51.984;5.088;2022-07-19T18:03:14;13.02;;;5.18;;
69625;SDS011;56847;51.984;5.088;2022-07-19T18:05:46;11.63;;;4.00;;
69625;SDS011;56847;51.984;5.088;2022-07-19T18:08:21;5.55;;;4.53;;
69625;SDS011;56847;51.984;5.088;2022-07-19T18:10:52;10.60;;;4.28;;
69625;SDS011;56847;51.984;5.088;2022-07-19T18:13:34;9.75;;;4.15;;
69625;SDS011;56847;51.984;5.088;2022-07-19T18:18:58;8.90;;;4.13;;
69625;SDS011;56847;51.984;5.088;2022-07-19T18:21:32;8.10;;;4.37;;
69625;SDS011;56847;51.984;5.088;2022-07-19T18:24:00;11.02;;;4.10;;
69625;SDS011;56847;51.984;5.088;2022-07-19T18:26:27;10.82;;;4.20;;
69625;SDS011;56847;51.984;5.088;2022-07-19T18:29:00;7.72;;;4.00;;
69625;SDS011;56847;51.984;5.088;2022-07-19T18:31:28;10.00;;;3.63;;
69625;SDS011;56847;51.984;5.088;2022-07-19T18:33:57;14.63;;;3.60;;
69625;SDS011;56847;51.984;5.088;2022-07-19T18:36:27;10.45;;;3.88;;
69625;SDS011;56847;51.984;5.088;2022-07-19T18:38:55;8.93;;;3.83;;
69625;SDS011;56847;51.984;5.088;2022-07-19T18:41:25;6.30;;;4.63;;
69625;SDS011;56847;51.984;5.088;2022-07-19T18:43:55;9.32;;;3.88;;
69625;SDS011;56847;51.984;5.088;2022-07-19T18:46:22;11.60;;;3.95;;
69625;SDS011;56847;51.984;5.088;2022-07-19T18:48:50;13.75;;;4.03;;
69625;SDS011;56847;51.984;5.088;2022-07-19T18:51:18;5.30;;;3.25;;
69625;SDS011;56847;51.984;5.088;2022-07-19T18:53:46;12.38;;;4.03;;
69625;SDS011;56847;51.984;5.088;2022-07-19T18:56:14;8.55;;;4.18;;
69625;SDS011;56847;51.984;5.088;2022-07-19T18:58:46;15.33;;;3.40;;
69625;SDS011;56847;51.984;5.088;2022-07-19T19:01:13;5.50;;;3.50;;
69625;SDS011;56847;51.984;5.088;2022-07-19T19:03:45;10.13;;;3.78;;